createdAt,value
2023-04-20T00:01:36.161Z,61.47
2023-04-20T00:04:03.779Z,61.55
2023-04-20T00:06:32.983Z,61.58
2023-04-20T00:09:01.789Z,61.56
2023-04-20T00:11:29.302Z,61.62
2023-04-20T00:13:56.783Z,61.58
2023-04-20T00:16:24.236Z,61.65
2023-04-20T00:18:52.067Z,61.62
2023-04-20T00:21:23.955Z,61.65
2023-04-20T00:23:52.093Z,61.64
2023-04-20T00:26:21.345Z,61.74
2023-04-20T00:28:51.975Z,61.98
2023-04-20T00:31:20.692Z,61.83
2023-04-20T00:33:49.014Z,61.81
2023-04-20T00:36:17.737Z,61.89
2023-04-20T00:38:47.744Z,61.78
2023-04-20T00:41:15.163Z,61.92
2023-04-20T00:44:02.025Z,61.95
2023-04-20T00:46:30.770Z,61.91
2023-04-20T00:49:01.698Z,61.99
2023-04-20T00:51:31.761Z,62.21
2023-04-20T00:54:01.351Z,62.19
2023-04-20T00:56:29.121Z,62.17
2023-04-20T00:59:02.189Z,62.13
2023-04-20T01:01:36.523Z,62.09
2023-04-20T01:04:04.675Z,62.31
2023-04-20T01:06:35.072Z,62.23
2023-04-20T01:09:03.068Z,62.35
2023-04-20T01:11:30.606Z,62.24
2023-04-20T01:13:58.207Z,62.34
2023-04-20T01:16:25.759Z,62.45
2023-04-20T01:18:53.884Z,62.47
2023-04-20T01:21:22.516Z,62.30
2023-04-20T01:23:50.770Z,62.54
2023-04-20T01:26:23.326Z,62.42
2023-04-20T01:28:51.269Z,62.55
2023-04-20T01:31:21.429Z,62.63
2023-04-20T01:33:49.596Z,62.71
2023-04-20T01:36:17.126Z,62.70
2023-04-20T01:38:44.606Z,62.74
2023-04-20T01:41:12.409Z,62.82
2023-04-20T01:43:40.799Z,62.70
2023-04-20T01:46:09.696Z,62.74
2023-04-20T01:48:37.371Z,62.72
2023-04-20T01:51:06.276Z,62.84
2023-04-20T01:53:33.694Z,62.84
2023-04-20T01:56:01.219Z,62.72
2023-04-20T01:58:29.195Z,62.88
2023-04-20T02:00:56.772Z,62.90
2023-04-20T02:03:24.393Z,62.91
2023-04-20T02:05:51.936Z,62.85
2023-04-20T02:08:20.957Z,62.96
2023-04-20T02:10:48.393Z,62.78
2023-04-20T02:13:15.998Z,62.98
2023-04-20T02:15:43.539Z,63.00
2023-04-20T02:18:11.109Z,62.93
2023-04-20T02:20:40.141Z,63.02
2023-04-20T02:23:07.861Z,62.94
2023-04-20T02:25:35.684Z,63.16
2023-04-20T02:28:03.362Z,63.12
2023-04-20T02:30:30.952Z,63.01
2023-04-20T02:32:59.298Z,63.18
2023-04-20T02:35:26.810Z,63.26
2023-04-20T02:37:54.489Z,63.35
2023-04-20T02:40:22.151Z,63.20
2023-04-20T02:42:49.604Z,63.32
2023-04-20T02:45:17.218Z,63.27
2023-04-20T02:47:44.771Z,63.32
2023-04-20T02:50:12.656Z,63.24
2023-04-20T02:52:40.461Z,63.31
2023-04-20T02:55:08.342Z,63.36
2023-04-20T02:57:36.342Z,63.39
2023-04-20T03:00:04.234Z,63.55
2023-04-20T03:02:32.144Z,63.60
2023-04-20T03:04:59.785Z,63.62
2023-04-20T03:07:27.217Z,63.56
2023-04-20T03:09:54.666Z,63.69
2023-04-20T03:12:22.376Z,63.73
2023-04-20T03:14:50.018Z,63.72
2023-04-20T03:17:18.623Z,63.68
2023-04-20T03:19:46.419Z,63.70
2023-04-20T03:22:13.928Z,63.71
2023-04-20T03:24:41.374Z,63.81
2023-04-20T03:27:08.886Z,63.83
2023-04-20T03:29:36.365Z,63.76
2023-04-20T03:32:03.899Z,63.83
2023-04-20T03:34:31.893Z,63.87
2023-04-20T03:36:59.308Z,63.83
2023-04-20T03:39:26.825Z,63.86
2023-04-20T03:41:54.383Z,64.05
2023-04-20T03:44:21.811Z,63.98
2023-04-20T03:46:49.467Z,64.04
2023-04-20T03:49:17.351Z,64.09
2023-04-20T03:51:45.100Z,64.15
2023-04-20T03:54:12.511Z,64.06
2023-04-20T03:56:39.983Z,64.15
2023-04-20T03:59:07.466Z,64.12
2023-04-20T04:01:37.434Z,64.25
2023-04-20T04:04:05.405Z,64.28
2023-04-20T04:06:33.312Z,64.38
2023-04-20T04:09:00.753Z,64.33
2023-04-20T04:11:30.088Z,64.40
2023-04-20T04:13:59.185Z,64.47
2023-04-20T04:16:26.680Z,64.44
2023-04-20T04:18:54.238Z,64.36
2023-04-20T04:21:21.754Z,64.35
2023-04-20T04:23:49.581Z,64.46
2023-04-20T04:26:18.380Z,64.50
2023-04-20T04:28:45.880Z,64.45
2023-04-20T04:31:13.459Z,64.35
2023-04-20T04:33:40.957Z,64.36
2023-04-20T04:36:08.669Z,64.48
2023-04-20T04:38:36.119Z,64.28
2023-04-20T04:41:03.817Z,64.39
2023-04-20T04:43:31.323Z,64.44
2023-04-20T04:45:58.924Z,64.55
2023-04-20T04:48:26.433Z,64.55
2023-04-20T04:50:53.970Z,64.37
2023-04-20T04:53:21.573Z,64.32
2023-04-20T04:55:49.190Z,64.29
2023-04-20T04:58:17.703Z,64.40
2023-04-20T05:00:45.268Z,64.36
2023-04-20T05:03:12.750Z,64.24
2023-04-20T05:05:40.396Z,64.37
2023-04-20T05:08:07.824Z,64.35
2023-04-20T05:10:35.763Z,64.29
2023-04-20T05:13:03.265Z,64.31
2023-04-20T05:15:30.760Z,64.28
2023-04-20T05:18:00.028Z,64.30
2023-04-20T05:20:27.671Z,64.42
2023-04-20T05:23:03.977Z,64.39
2023-04-20T05:25:32.864Z,64.63
2023-04-20T05:28:01.663Z,64.43
2023-04-20T05:30:29.221Z,64.36
2023-04-20T05:32:56.936Z,64.31
2023-04-20T05:35:24.529Z,64.27
2023-04-20T05:37:52.181Z,64.06
2023-04-20T05:40:19.863Z,63.93
2023-04-20T05:42:47.518Z,64.00
2023-04-20T05:45:19.122Z,64.06
2023-04-20T05:48:02.889Z,63.84
2023-04-20T05:50:31.073Z,63.69
2023-04-20T05:52:58.594Z,63.60
2023-04-20T05:55:27.664Z,63.53
2023-04-20T05:57:57.396Z,63.42
2023-04-20T06:00:33.488Z,63.39
2023-04-20T06:03:01.170Z,63.07
2023-04-20T06:05:29.252Z,63.17
2023-04-20T06:07:56.898Z,63.11
2023-04-20T06:10:34.703Z,62.90
2023-04-20T06:13:11.726Z,62.86
2023-04-20T06:15:40.350Z,62.82
2023-04-20T06:18:09.299Z,62.73
2023-04-20T06:20:39.700Z,62.79
2023-04-20T06:23:08.942Z,62.82
2023-04-20T06:25:36.755Z,62.79
2023-04-20T06:28:05.777Z,62.89
2023-04-20T06:30:36.437Z,62.82
2023-04-20T06:33:05.857Z,62.83
2023-04-20T06:35:33.758Z,62.74
2023-04-20T06:38:02.641Z,62.81
2023-04-20T06:40:30.415Z,62.51
2023-04-20T06:42:58.041Z,62.48
2023-04-20T06:45:28.772Z,62.40
2023-04-20T06:47:56.577Z,62.35
2023-04-20T06:50:35.707Z,62.27
2023-04-20T06:53:16.129Z,62.27
2023-04-20T06:55:45.007Z,62.40
2023-04-20T06:58:18.141Z,62.41
2023-04-20T07:00:56.418Z,62.32
2023-04-20T07:03:41.758Z,62.21
2023-04-20T07:06:11.665Z,61.87
2023-04-20T07:08:40.109Z,61.83
2023-04-20T07:11:08.046Z,61.71
2023-04-20T07:13:35.828Z,61.61
2023-04-20T07:16:03.630Z,61.67
2023-04-20T07:18:33.980Z,61.64
2023-04-20T07:21:02.799Z,61.68
2023-04-20T07:23:31.259Z,61.55
2023-04-20T07:25:59.485Z,61.50
2023-04-20T07:28:27.175Z,61.21
2023-04-20T07:30:54.859Z,61.12
2023-04-20T07:33:24.108Z,61.17
2023-04-20T07:35:52.286Z,60.92
2023-04-20T07:38:19.736Z,60.66
2023-04-20T07:40:47.193Z,60.71
2023-04-20T07:43:15.090Z,60.60
2023-04-20T07:45:42.570Z,60.42
2023-04-20T07:48:12.211Z,60.69
2023-04-20T07:50:41.174Z,60.22
2023-04-20T07:53:08.690Z,59.90
2023-04-20T07:55:36.734Z,60.52
2023-04-20T07:58:04.293Z,60.11
2023-04-20T08:00:31.886Z,59.97
2023-04-20T08:03:01.091Z,59.90
2023-04-20T08:05:29.580Z,59.84
2023-04-20T08:07:58.870Z,59.64
2023-04-20T08:10:26.533Z,59.67
2023-04-20T08:12:54.081Z,59.56
2023-04-20T08:15:21.638Z,59.52
2023-04-20T08:17:49.161Z,59.44
2023-04-20T08:20:19.420Z,59.33
2023-04-20T08:22:47.568Z,59.32
2023-04-20T08:25:16.292Z,59.35
2023-04-20T08:27:44.646Z,59.21
2023-04-20T08:30:12.828Z,59.04
2023-04-20T08:32:41.106Z,58.80
2023-04-20T08:35:09.348Z,58.62
2023-04-20T08:37:38.643Z,58.33
2023-04-20T08:40:06.949Z,58.28
2023-04-20T08:42:35.816Z,58.17
2023-04-20T08:45:03.721Z,57.88
2023-04-20T08:47:37.181Z,57.75
2023-04-20T08:50:05.463Z,57.77
2023-04-20T08:52:35.707Z,57.71
2023-04-20T08:55:03.562Z,57.31
2023-04-20T08:57:31.101Z,56.63
2023-04-20T08:59:58.704Z,56.69
2023-04-20T09:02:26.257Z,56.97
2023-04-20T09:05:05.264Z,56.99
2023-04-20T09:07:33.109Z,56.74
2023-04-20T09:10:01.209Z,56.43
2023-04-20T09:12:29.045Z,56.38
2023-04-20T09:14:56.702Z,56.22
2023-04-20T09:17:33.090Z,56.02
2023-04-20T09:20:01.074Z,56.04
2023-04-20T09:22:45.623Z,55.98
2023-04-20T09:25:17.817Z,55.65
2023-04-20T09:28:01.977Z,55.78
2023-04-20T09:30:48.913Z,55.70
2023-04-20T09:33:19.289Z,55.46
2023-04-20T09:35:47.210Z,54.90
2023-04-20T09:38:18.104Z,54.53
2023-04-20T09:40:45.845Z,54.54
2023-04-20T09:43:18.972Z,54.75
2023-04-20T09:45:46.704Z,55.24
2023-04-20T09:48:19.201Z,54.75
2023-04-20T09:50:51.079Z,53.43
2023-04-20T09:53:20.001Z,52.97
2023-04-20T09:55:50.068Z,52.32
2023-04-20T09:58:20.593Z,52.04
2023-04-20T10:00:49.210Z,51.89
2023-04-20T10:03:19.387Z,51.83
2023-04-20T10:05:47.464Z,51.72
2023-04-20T10:08:15.408Z,51.50
2023-04-20T10:10:48.857Z,51.26
2023-04-20T10:13:19.873Z,51.45
2023-04-20T10:15:47.494Z,51.45
2023-04-20T10:18:20.894Z,50.99
2023-04-20T10:20:49.732Z,50.72
2023-04-20T10:23:19.839Z,50.71
2023-04-20T10:26:03.812Z,50.85
2023-04-20T10:28:42.128Z,50.49
2023-04-20T10:31:15.777Z,50.15
2023-04-20T10:34:00.734Z,49.56
2023-04-20T10:36:31.900Z,49.42
2023-04-20T10:39:01.677Z,48.96
2023-04-20T10:41:29.352Z,48.65
2023-04-20T10:44:07.774Z,47.88
2023-04-20T10:46:36.713Z,47.75
2023-04-20T10:49:04.418Z,47.74
2023-04-20T10:51:34.512Z,47.29
2023-04-20T10:54:08.461Z,47.07
2023-04-20T10:56:44.953Z,46.69
2023-04-20T10:59:24.874Z,46.40
2023-04-20T11:01:54.087Z,46.14
2023-04-20T11:04:37.700Z,45.68
2023-04-20T11:07:10.312Z,45.35
2023-04-20T11:09:40.575Z,45.08
2023-04-20T11:12:11.940Z,44.88
2023-04-20T11:14:54.582Z,44.54
2023-04-20T11:17:39.512Z,44.13
2023-04-20T11:20:13.949Z,43.76
2023-04-20T11:22:43.970Z,43.63
2023-04-20T11:25:12.904Z,43.77
2023-04-20T11:27:44.843Z,43.53
2023-04-20T11:30:12.823Z,43.28
2023-04-20T11:32:40.638Z,43.47
2023-04-20T11:35:11.323Z,43.13
2023-04-20T11:37:51.800Z,42.53
2023-04-20T11:40:20.370Z,42.21
2023-04-20T11:42:47.904Z,42.01
2023-04-20T11:45:16.206Z,42.00
2023-04-20T11:47:45.957Z,42.20
2023-04-20T11:50:16.329Z,41.96
2023-04-20T11:52:44.338Z,41.79
2023-04-20T11:55:15.219Z,41.75
2023-04-20T11:57:43.388Z,41.49
2023-04-20T12:00:13.822Z,41.34
2023-04-20T12:02:41.766Z,40.80
2023-04-20T12:05:09.941Z,40.63
2023-04-20T12:07:38.152Z,40.46
2023-04-20T12:10:08.497Z,40.42
2023-04-20T12:12:38.826Z,40.38
2023-04-20T12:15:07.743Z,39.93
2023-04-20T12:17:35.940Z,39.71
2023-04-20T12:20:08.805Z,39.47
2023-04-20T12:22:56.050Z,39.22
2023-04-20T12:25:26.240Z,39.00
2023-04-20T12:28:08.054Z,38.61
2023-04-20T12:30:38.954Z,38.86
2023-04-20T12:33:06.955Z,38.51
2023-04-20T12:35:34.694Z,38.51
2023-04-20T12:38:02.341Z,38.43
2023-04-20T12:40:29.884Z,38.21
2023-04-20T12:42:57.480Z,37.88
2023-04-20T12:45:25.024Z,37.40
2023-04-20T12:47:55.416Z,37.23
2023-04-20T12:50:29.875Z,37.05
2023-04-20T12:53:06.047Z,36.91
2023-04-20T12:55:33.560Z,37.24
2023-04-20T12:58:01.096Z,37.38
2023-04-20T13:00:28.595Z,37.05
2023-04-20T13:02:56.315Z,36.56
2023-04-20T13:05:23.990Z,36.22
2023-04-20T13:07:51.862Z,36.00
2023-04-20T13:10:19.325Z,36.21
2023-04-20T13:12:46.809Z,35.79
2023-04-20T13:15:14.651Z,35.11
2023-04-20T13:17:42.952Z,34.69
2023-04-20T13:20:13.872Z,34.54
2023-04-20T13:22:50.681Z,34.47
2023-04-20T13:25:22.249Z,34.10
2023-04-20T13:27:49.727Z,34.18
2023-04-20T13:30:17.218Z,33.95
2023-04-20T13:32:44.800Z,33.98
2023-04-20T13:35:14.480Z,33.90
2023-04-20T13:37:42.146Z,33.93
2023-04-20T13:40:10.892Z,33.98
2023-04-20T13:42:38.492Z,34.09
2023-04-20T13:45:06.876Z,34.13
2023-04-20T13:47:34.680Z,33.91
2023-04-20T13:50:03.569Z,34.02
2023-04-20T13:52:31.649Z,34.15
2023-04-20T13:54:59.147Z,34.27
2023-04-20T13:57:26.667Z,34.20
2023-04-20T13:59:54.280Z,34.03
2023-04-20T14:02:21.859Z,33.42
2023-04-20T14:04:49.659Z,33.04
2023-04-20T14:07:17.295Z,33.26
2023-04-20T14:09:45.198Z,33.22
2023-04-20T14:12:13.752Z,33.00
2023-04-20T14:14:41.318Z,33.05
2023-04-20T14:17:08.903Z,33.20
2023-04-20T14:19:36.330Z,33.09
2023-04-20T14:22:03.872Z,32.65
2023-04-20T14:24:31.334Z,32.06
2023-04-20T14:26:59.822Z,32.08
2023-04-20T14:29:27.795Z,31.68
2023-04-20T14:31:56.818Z,31.51
2023-04-20T14:34:24.562Z,31.42
2023-04-20T14:36:52.056Z,31.47
2023-04-20T14:39:23.470Z,31.60
2023-04-20T14:41:51.314Z,31.60
2023-04-20T14:44:18.996Z,31.65
2023-04-20T14:46:46.933Z,31.34
2023-04-20T14:49:14.839Z,31.16
2023-04-20T14:51:44.792Z,31.32
2023-04-20T14:54:12.273Z,31.25
2023-04-20T14:56:39.866Z,31.25
2023-04-20T14:59:07.429Z,31.30
2023-04-20T15:01:35.054Z,31.20
2023-04-20T15:04:03.337Z,31.28
2023-04-20T15:06:32.081Z,31.47
2023-04-20T15:09:02.944Z,31.52
2023-04-20T15:11:30.605Z,31.42
2023-04-20T15:13:58.154Z,31.56
2023-04-20T15:16:25.714Z,31.61
2023-04-20T15:18:54.586Z,31.49
2023-04-20T15:21:22.871Z,31.60
2023-04-20T15:23:50.581Z,31.66
2023-04-20T15:26:18.290Z,31.72
2023-04-20T15:28:47.092Z,32.16
2023-04-20T15:31:18.643Z,32.79
2023-04-20T15:33:48.009Z,32.77
2023-04-20T15:36:19.561Z,32.90
2023-04-20T15:38:47.093Z,32.60
2023-04-20T15:41:16.344Z,32.30
2023-04-20T15:43:44.245Z,31.84
2023-04-20T15:46:11.889Z,31.69
2023-04-20T15:48:39.400Z,31.35
2023-04-20T15:51:07.211Z,31.08
2023-04-20T15:53:35.257Z,30.99
2023-04-20T15:56:02.771Z,30.48
2023-04-20T15:58:30.248Z,30.41
2023-04-20T16:00:57.940Z,30.52
2023-04-20T16:03:25.993Z,30.33
2023-04-20T16:05:54.003Z,30.18
2023-04-20T16:08:21.513Z,29.88
2023-04-20T16:10:48.980Z,29.59
2023-04-20T16:13:17.516Z,29.42
2023-04-20T16:15:45.100Z,29.31
2023-04-20T16:18:12.644Z,29.02
2023-04-20T16:20:41.441Z,28.78
2023-04-20T16:23:09.480Z,28.71
2023-04-20T16:25:38.687Z,28.51
2023-04-20T16:28:06.217Z,28.22
2023-04-20T16:30:34.241Z,28.15
2023-04-20T16:33:02.210Z,27.95
2023-04-20T16:35:29.859Z,27.80
2023-04-20T16:37:57.594Z,27.67
2023-04-20T16:40:28.565Z,27.40
2023-04-20T16:42:56.102Z,27.19
2023-04-20T16:45:23.574Z,27.08
2023-04-20T16:47:51.454Z,26.95
2023-04-20T16:50:20.311Z,26.75
2023-04-20T16:52:48.336Z,26.81
2023-04-20T16:55:15.938Z,26.47
2023-04-20T16:57:43.414Z,26.24
2023-04-20T17:00:13.268Z,26.26
2023-04-20T17:02:40.955Z,26.30
2023-04-20T17:05:13.660Z,26.33
2023-04-20T17:07:41.151Z,26.26
2023-04-20T17:10:09.287Z,26.25
2023-04-20T17:12:36.757Z,25.97
2023-04-20T17:15:04.654Z,26.02
2023-04-20T17:17:33.059Z,26.14
2023-04-20T17:20:02.365Z,26.04
2023-04-20T17:22:30.041Z,25.98
2023-04-20T17:24:57.579Z,25.85
2023-04-20T17:27:25.252Z,26.01
2023-04-20T17:29:52.749Z,26.22
2023-04-20T17:32:20.234Z,26.31
2023-04-20T17:34:51.755Z,26.30
2023-04-20T17:37:20.087Z,26.38
2023-04-20T17:39:47.634Z,26.48
2023-04-20T17:42:15.313Z,26.71
2023-04-20T17:44:42.830Z,26.83
2023-04-20T17:47:10.468Z,27.03
2023-04-20T17:49:39.498Z,27.14
2023-04-20T17:52:09.138Z,27.27
2023-04-20T17:54:36.600Z,27.45
2023-04-20T17:57:04.234Z,27.48
2023-04-20T17:59:31.760Z,27.60
2023-04-20T18:01:59.402Z,27.85
2023-04-20T18:04:27.361Z,27.91
2023-04-20T18:06:55.458Z,28.06
2023-04-20T18:09:22.964Z,28.24
2023-04-20T18:11:50.629Z,28.35
2023-04-20T18:14:18.259Z,28.43
2023-04-20T18:16:45.992Z,28.61
2023-04-20T18:19:13.473Z,28.80
2023-04-20T18:21:41.050Z,28.97
2023-04-20T18:24:08.529Z,29.15
2023-04-20T18:26:37.063Z,29.28
2023-04-20T18:29:05.352Z,29.33
2023-04-20T18:31:33.103Z,29.48
2023-04-20T18:34:00.626Z,29.69
2023-04-20T18:36:29.692Z,29.83
2023-04-20T18:38:57.321Z,29.98
2023-04-20T18:41:25.882Z,30.02
2023-04-20T18:43:54.406Z,30.27
2023-04-20T18:46:22.167Z,30.28
2023-04-20T18:48:49.674Z,30.31
2023-04-20T18:51:17.457Z,30.52
2023-04-20T18:53:44.968Z,30.71
2023-04-20T18:56:12.511Z,30.87
2023-04-20T18:58:40.062Z,30.86
2023-04-20T19:01:07.620Z,31.07
2023-04-20T19:03:35.735Z,31.28
2023-04-20T19:06:03.522Z,31.36
2023-04-20T19:08:33.847Z,31.47
2023-04-20T19:11:01.509Z,31.68
2023-04-20T19:13:28.957Z,31.61
2023-04-20T19:15:59.685Z,31.89
2023-04-20T19:18:27.264Z,31.97
2023-04-20T19:20:54.781Z,32.07
2023-04-20T19:23:22.270Z,32.15
2023-04-20T19:25:49.872Z,32.22
2023-04-20T19:28:17.471Z,32.30
2023-04-20T19:30:45.212Z,32.51
2023-04-20T19:33:12.768Z,32.56
2023-04-20T19:35:42.060Z,32.57
2023-04-20T19:38:09.599Z,32.62
2023-04-20T19:40:37.255Z,32.76
2023-04-20T19:43:04.705Z,32.98
2023-04-20T19:45:32.257Z,32.91
2023-04-20T19:47:59.775Z,33.09
2023-04-20T19:50:27.347Z,33.22
2023-04-20T19:52:55.494Z,33.38
2023-04-20T19:55:23.061Z,33.57
2023-04-20T19:57:51.712Z,33.48
2023-04-20T20:00:19.270Z,33.63
2023-04-20T20:02:46.897Z,33.64
2023-04-20T20:05:14.573Z,33.64
2023-04-20T20:07:42.466Z,33.85
2023-04-20T20:10:10.478Z,34.01
2023-04-20T20:12:38.092Z,33.95
2023-04-20T20:15:06.167Z,34.24
2023-04-20T20:17:33.757Z,34.25
2023-04-20T20:20:02.122Z,34.32
2023-04-20T20:22:29.598Z,34.43
2023-04-20T20:24:57.212Z,34.54
2023-04-20T20:27:25.643Z,34.59
2023-04-20T20:29:53.161Z,34.70
2023-04-20T20:32:22.656Z,34.52
2023-04-20T20:34:53.040Z,34.66
2023-04-20T20:37:21.151Z,34.77
2023-04-20T20:39:48.648Z,34.83
2023-04-20T20:42:16.142Z,34.94
2023-04-20T20:44:43.956Z,34.97
2023-04-20T20:47:11.506Z,35.10
2023-04-20T20:49:38.958Z,35.06
2023-04-20T20:52:07.214Z,35.23
2023-04-20T20:54:34.751Z,35.36
2023-04-20T20:57:02.878Z,35.48
2023-04-20T20:59:30.378Z,35.45
2023-04-20T21:01:57.832Z,35.43
2023-04-20T21:04:26.130Z,35.60
2023-04-20T21:06:53.608Z,35.61
2023-04-20T21:09:21.419Z,35.54
2023-04-20T21:11:49.075Z,35.52
2023-04-20T21:14:16.576Z,35.67
2023-04-20T21:16:44.171Z,35.87
2023-04-20T21:19:11.789Z,35.91
2023-04-20T21:21:39.383Z,35.82
2023-04-20T21:24:07.117Z,35.86
2023-04-20T21:26:35.982Z,36.05
2023-04-20T21:29:04.195Z,35.98
2023-04-20T21:31:32.934Z,35.94
2023-04-20T21:34:00.941Z,36.10
2023-04-20T21:36:28.489Z,36.35
2023-04-20T21:38:56.016Z,36.15
2023-04-20T21:41:23.600Z,36.41
2023-04-20T21:43:52.734Z,36.33
2023-04-20T21:46:20.453Z,36.45
2023-04-20T21:48:48.034Z,36.58
2023-04-20T21:51:16.730Z,36.54
2023-04-20T21:53:45.515Z,36.64
2023-04-20T21:56:14.766Z,36.59
2023-04-20T21:58:42.410Z,36.73
2023-04-20T22:01:10.125Z,36.67
2023-04-20T22:03:38.233Z,36.81
2023-04-20T22:06:07.035Z,36.90
2023-04-20T22:08:34.505Z,36.83
2023-04-20T22:11:01.984Z,37.01
2023-04-20T22:13:29.472Z,36.87
2023-04-20T22:15:57.037Z,37.00
2023-04-20T22:18:24.898Z,37.04
2023-04-20T22:20:52.471Z,37.04
2023-04-20T22:23:20.046Z,37.19
2023-04-20T22:25:47.876Z,37.11
2023-04-20T22:28:15.619Z,37.15
2023-04-20T22:30:43.133Z,37.28
2023-04-20T22:33:10.816Z,37.27
2023-04-20T22:35:38.637Z,37.32
2023-04-20T22:38:06.328Z,37.32
2023-04-20T22:40:33.836Z,37.31
2023-04-20T22:43:01.285Z,37.38
2023-04-20T22:45:28.907Z,37.39
2023-04-20T22:47:56.484Z,37.38
2023-04-20T22:50:24.267Z,37.40
2023-04-20T22:52:51.926Z,37.55
2023-04-20T22:55:19.524Z,37.60
2023-04-20T22:57:46.999Z,37.55
2023-04-20T23:00:15.988Z,37.57
2023-04-20T23:02:43.579Z,37.63
2023-04-20T23:05:11.791Z,37.69
2023-04-20T23:07:39.501Z,37.71
2023-04-20T23:10:08.188Z,37.74
2023-04-20T23:12:35.621Z,38.01
2023-04-20T23:15:04.615Z,37.92
2023-04-20T23:17:34.773Z,37.87
2023-04-20T23:20:02.444Z,38.11
2023-04-20T23:22:29.905Z,38.14
2023-04-20T23:24:57.339Z,38.12
2023-04-20T23:27:30.050Z,38.07
2023-04-20T23:29:57.614Z,38.23
2023-04-20T23:32:26.085Z,38.50
2023-04-20T23:34:53.640Z,38.39
2023-04-20T23:37:21.080Z,38.37
2023-04-20T23:39:48.519Z,38.48
2023-04-20T23:42:15.975Z,38.45
2023-04-20T23:44:43.527Z,38.45
2023-04-20T23:47:13.600Z,38.50
2023-04-20T23:49:41.340Z,38.64
2023-04-20T23:52:08.882Z,38.69
2023-04-20T23:54:36.461Z,38.71
2023-04-20T23:57:04.032Z,38.84
2023-04-20T23:59:34.364Z,38.95
